createdAt,value
2022-10-25T00:00:16.555Z,96.20
2022-10-25T00:02:26.892Z,95.60
2022-10-25T00:04:33.355Z,95.20
2022-10-25T00:06:40.528Z,95.00
2022-10-25T00:08:48.784Z,94.80
2022-10-25T00:10:55.243Z,94.70
2022-10-25T00:13:02.018Z,94.60
2022-10-25T00:15:09.465Z,94.80
2022-10-25T00:17:16.126Z,93.80
2022-10-25T00:19:22.552Z,93.70
2022-10-25T00:21:29.976Z,93.70
2022-10-25T00:23:36.433Z,93.00
2022-10-25T00:25:45.587Z,93.00
2022-10-25T00:27:52.555Z,92.80
2022-10-25T00:29:59.442Z,92.70
2022-10-25T00:32:06.121Z,92.00
2022-10-25T00:34:12.599Z,91.60
2022-10-25T00:36:20.865Z,91.00
2022-10-25T00:38:27.463Z,91.00
2022-10-25T00:40:34.272Z,90.90
2022-10-25T00:42:42.340Z,90.20
2022-10-25T00:44:58.021Z,90.20
2022-10-25T00:47:05.482Z,90.00
2022-10-25T00:49:18.340Z,90.00
2022-10-25T00:51:30.203Z,89.70
2022-10-25T00:53:37.222Z,89.60
2022-10-25T00:55:48.455Z,89.90
2022-10-25T00:58:02.385Z,89.80
2022-10-25T01:00:11.190Z,88.70
2022-10-25T01:02:19.699Z,88.30
2022-10-25T01:04:29.595Z,88.20
2022-10-25T01:06:40.828Z,87.50
2022-10-25T01:08:48.288Z,86.80
2022-10-25T01:10:54.766Z,86.80
2022-10-25T01:13:04.843Z,85.20
2022-10-25T01:15:12.801Z,85.20
2022-10-25T01:17:33.465Z,85.40
2022-10-25T01:20:02.156Z,85.20
2022-10-25T01:22:11.717Z,85.00
2022-10-25T01:24:49.541Z,84.80
2022-10-25T01:27:23.838Z,84.30
2022-10-25T01:29:55.286Z,84.80
2022-10-25T01:32:09.086Z,85.00
2022-10-25T01:34:19.780Z,83.70
2022-10-25T01:36:33.815Z,83.90
2022-10-25T01:38:48.145Z,83.50
2022-10-25T01:41:02.664Z,83.40
2022-10-25T01:43:16.053Z,83.30
2022-10-25T01:45:27.615Z,80.80
2022-10-25T01:47:41.085Z,77.10
2022-10-25T01:49:55.610Z,78.30
2022-10-25T01:52:02.094Z,78.40
2022-10-25T01:54:22.260Z,78.60
2022-10-25T01:56:34.185Z,76.10
2022-10-25T01:58:49.033Z,77.30
2022-10-25T02:01:02.170Z,77.60
2022-10-25T02:03:23.940Z,77.10
2022-10-25T02:05:36.073Z,76.20
2022-10-25T02:07:45.301Z,76.10
2022-10-25T02:10:00.520Z,76.40
2022-10-25T02:12:10.533Z,75.80
2022-10-25T02:14:24.550Z,74.60
2022-10-25T02:16:47.156Z,74.20
2022-10-25T02:18:59.545Z,74.80
2022-10-25T02:21:08.310Z,76.10
2022-10-25T02:23:16.510Z,76.10
2022-10-25T02:25:24.611Z,75.10
2022-10-25T02:27:33.099Z,75.40
2022-10-25T02:29:40.756Z,75.30
2022-10-25T02:31:47.870Z,74.90
2022-10-25T02:33:56.013Z,74.60
2022-10-25T02:36:15.325Z,75.40
2022-10-25T02:38:22.255Z,75.60
2022-10-25T02:40:29.213Z,75.70
2022-10-25T02:42:35.691Z,75.20
2022-10-25T02:44:43.214Z,74.90
2022-10-25T02:46:49.881Z,74.10
2022-10-25T02:48:58.353Z,74.20
2022-10-25T02:51:04.972Z,74.50
2022-10-25T02:53:11.712Z,74.70
2022-10-25T02:55:18.292Z,74.10
2022-10-25T02:57:24.753Z,74.00
2022-10-25T02:59:31.305Z,73.30
2022-10-25T03:01:38.191Z,73.00
2022-10-25T03:03:44.992Z,73.60
2022-10-25T03:05:53.399Z,73.20
2022-10-25T03:07:59.856Z,73.20
2022-10-25T03:10:06.883Z,72.60
2022-10-25T03:12:13.325Z,71.90
2022-10-25T03:14:19.909Z,71.80
2022-10-25T03:16:26.550Z,71.90
2022-10-25T03:18:32.988Z,72.20
2022-10-25T03:20:39.913Z,71.60
2022-10-25T03:22:47.986Z,70.30
2022-10-25T03:24:54.935Z,70.50
2022-10-25T03:27:01.473Z,70.60
2022-10-25T03:29:07.931Z,71.00
2022-10-25T03:31:15.738Z,70.30
2022-10-25T03:33:22.329Z,70.50
2022-10-25T03:35:29.537Z,69.70
2022-10-25T03:37:36.008Z,69.50
2022-10-25T03:39:44.080Z,69.80
2022-10-25T03:41:50.581Z,68.60
2022-10-25T03:43:57.022Z,68.80
2022-10-25T03:46:03.766Z,68.70
2022-10-25T03:48:10.489Z,69.80
2022-10-25T03:50:17.461Z,69.60
2022-10-25T03:52:23.969Z,69.30
2022-10-25T03:54:30.709Z,69.10
2022-10-25T03:56:38.831Z,69.70
2022-10-25T03:58:45.660Z,70.60
2022-10-25T04:00:52.159Z,71.20
2022-10-25T04:03:02.133Z,70.70
2022-10-25T04:05:09.715Z,70.70
2022-10-25T04:07:16.198Z,70.60
2022-10-25T04:09:23.171Z,70.70
2022-10-25T04:11:29.594Z,70.60
2022-10-25T04:13:38.018Z,70.00
2022-10-25T04:15:44.458Z,69.80
2022-10-25T04:17:52.993Z,70.10
2022-10-25T04:19:59.540Z,71.20
2022-10-25T04:22:06.292Z,71.20
2022-10-25T04:24:12.892Z,70.50
2022-10-25T04:26:23.685Z,70.60
2022-10-25T04:28:30.313Z,70.50
2022-10-25T04:30:38.977Z,70.00
2022-10-25T04:32:45.823Z,70.00
2022-10-25T04:34:52.613Z,69.80
2022-10-25T04:36:59.071Z,70.10
2022-10-25T04:39:05.806Z,69.50
2022-10-25T04:41:13.584Z,68.80
2022-10-25T04:43:20.325Z,69.00
2022-10-25T04:45:26.748Z,69.10
2022-10-25T04:47:36.388Z,69.20
2022-10-25T04:49:42.885Z,68.80
2022-10-25T04:54:00.861Z,68.00
2022-10-25T04:56:09.242Z,68.20
2022-10-25T04:58:15.673Z,67.80
2022-10-25T05:00:23.196Z,67.40
2022-10-25T05:02:29.730Z,67.50
2022-10-25T05:04:38.158Z,67.70
2022-10-25T05:06:44.585Z,67.60
2022-10-25T05:08:53.416Z,66.40
2022-10-25T05:10:59.876Z,66.40
2022-10-25T05:13:06.781Z,66.50
2022-10-25T05:15:13.745Z,66.10
2022-10-25T05:17:20.411Z,66.00
2022-10-25T05:19:26.902Z,66.00
2022-10-25T05:21:36.479Z,65.80
2022-10-25T05:23:43.296Z,65.40
2022-10-25T05:25:49.815Z,65.30
2022-10-25T05:27:56.256Z,64.90
2022-10-25T05:30:02.753Z,65.00
2022-10-25T05:32:09.477Z,65.10
2022-10-25T05:34:15.942Z,64.10
2022-10-25T05:36:23.155Z,63.90
2022-10-25T05:38:34.302Z,64.10
2022-10-25T05:40:44.167Z,64.60
2022-10-25T05:42:50.662Z,63.90
2022-10-25T05:44:57.486Z,63.50
2022-10-25T05:47:03.977Z,64.00
2022-10-25T05:49:10.458Z,64.10
2022-10-25T05:51:32.967Z,64.20
2022-10-25T05:53:45.997Z,64.70
2022-10-25T05:55:52.422Z,64.50
2022-10-25T05:57:58.887Z,64.30
2022-10-25T06:00:05.646Z,63.90
2022-10-25T06:02:13.428Z,64.20
2022-10-25T06:04:20.514Z,64.70
2022-10-25T06:06:27.342Z,64.70
2022-10-25T06:08:33.882Z,65.50
2022-10-25T06:10:42.184Z,65.40
2022-10-25T06:12:49.343Z,65.20
2022-10-25T06:14:56.040Z,64.30
2022-10-25T06:17:02.497Z,65.10
2022-10-25T06:19:09.089Z,65.90
2022-10-25T06:21:16.720Z,65.00
2022-10-25T06:23:23.479Z,64.50
2022-10-25T06:25:29.947Z,64.00
2022-10-25T06:27:38.070Z,64.20
2022-10-25T06:29:44.530Z,63.40
2022-10-25T06:31:51.119Z,63.80
2022-10-25T06:33:57.583Z,63.00
2022-10-25T06:36:05.419Z,62.40
2022-10-25T06:38:12.270Z,62.80
2022-10-25T06:40:18.831Z,63.00
2022-10-25T06:42:25.340Z,62.30
2022-10-25T06:44:33.422Z,63.00
2022-10-25T06:47:11.578Z,61.60
2022-10-25T06:49:07.750Z,61.60
2022-10-25T06:51:14.616Z,61.90
2022-10-25T06:53:21.113Z,61.30
2022-10-25T06:55:27.635Z,61.00
2022-10-25T06:57:34.084Z,61.10
2022-10-25T06:59:42.647Z,61.80
2022-10-25T07:01:49.245Z,62.10
2022-10-25T07:03:56.197Z,62.00
2022-10-25T07:06:03.705Z,62.20
2022-10-25T07:08:10.201Z,60.90
2022-10-25T07:10:16.732Z,61.60
2022-10-25T07:12:23.561Z,61.40
2022-10-25T07:14:30.006Z,61.60
2022-10-25T07:16:38.106Z,60.70
2022-10-25T07:18:45.313Z,60.90
2022-10-25T07:20:51.791Z,61.00
2022-10-25T07:23:00.248Z,61.90
2022-10-25T07:27:14.786Z,61.40
2022-10-25T07:29:21.949Z,61.50
2022-10-25T07:31:30.780Z,61.40
2022-10-25T07:33:38.899Z,61.10
2022-10-25T07:35:59.029Z,60.60
2022-10-25T07:38:15.448Z,60.20
2022-10-25T07:40:21.883Z,60.00
2022-10-25T07:42:28.792Z,60.20
2022-10-25T07:44:35.353Z,60.40
2022-10-25T07:46:41.909Z,59.80
2022-10-25T07:48:50.637Z,60.30
2022-10-25T07:50:57.119Z,60.00
2022-10-25T07:53:03.876Z,60.20
2022-10-25T07:55:11.099Z,60.10
2022-10-25T07:57:17.994Z,60.00
2022-10-25T07:59:24.408Z,59.80
2022-10-25T08:01:32.199Z,59.70
2022-10-25T08:03:38.921Z,60.30
2022-10-25T08:05:53.638Z,60.30
2022-10-25T08:08:01.189Z,60.30
2022-10-25T08:10:08.128Z,60.20
2022-10-25T08:12:16.209Z,60.00
2022-10-25T08:14:25.526Z,59.70
2022-10-25T08:16:32.304Z,59.90
2022-10-25T08:18:39.001Z,60.00
2022-10-25T08:21:01.673Z,60.00
2022-10-25T08:23:09.697Z,59.70
2022-10-25T08:25:16.189Z,60.20
2022-10-25T08:27:23.717Z,60.50
2022-10-25T08:29:30.550Z,60.60
2022-10-25T08:31:37.618Z,60.40
2022-10-25T08:33:44.099Z,60.60
2022-10-25T08:35:52.235Z,60.90
2022-10-25T08:37:59.214Z,61.20
2022-10-25T08:40:05.945Z,61.30
2022-10-25T08:42:23.150Z,61.00
2022-10-25T08:44:40.031Z,61.30
2022-10-25T08:46:55.037Z,61.40
2022-10-25T08:49:08.244Z,61.40
2022-10-25T08:51:26.922Z,61.40
2022-10-25T08:53:38.990Z,61.60
2022-10-25T08:56:05.123Z,62.00
2022-10-25T08:58:19.316Z,62.30
2022-10-25T09:00:26.907Z,62.80
2022-10-25T09:02:42.377Z,63.10
2022-10-25T09:04:49.010Z,63.70
2022-10-25T09:07:09.381Z,64.10
2022-10-25T09:09:26.376Z,63.50
2022-10-25T09:11:45.899Z,63.30
2022-10-25T09:13:57.720Z,63.40
2022-10-25T09:16:13.787Z,63.30
2022-10-25T09:18:21.298Z,63.40
2022-10-25T09:20:31.548Z,63.50
2022-10-25T09:22:48.366Z,63.80
2022-10-25T09:25:02.699Z,64.30
2022-10-25T09:27:11.051Z,64.40
2022-10-25T09:29:26.934Z,64.40
2022-10-25T09:31:40.528Z,64.90
2022-10-25T09:33:50.242Z,64.60
2022-10-25T09:35:59.486Z,64.60
2022-10-25T09:38:15.418Z,64.20
2022-10-25T09:40:25.014Z,64.40
2022-10-25T09:42:37.289Z,64.20
2022-10-25T09:44:46.754Z,64.20
2022-10-25T09:46:58.024Z,64.40
2022-10-25T09:49:09.287Z,64.40
2022-10-25T09:51:24.014Z,64.50
2022-10-25T09:53:37.514Z,64.70
2022-10-25T09:55:52.016Z,64.80
2022-10-25T09:57:59.124Z,65.00
2022-10-25T10:00:06.528Z,65.20
2022-10-25T10:02:22.068Z,65.20
2022-10-25T10:04:38.765Z,65.20
2022-10-25T10:06:46.311Z,65.40
2022-10-25T10:08:56.645Z,65.80
2022-10-25T10:11:05.799Z,66.00
2022-10-25T10:13:21.182Z,65.90
2022-10-25T10:15:31.366Z,65.90
2022-10-25T10:17:37.817Z,65.90
2022-10-25T10:19:45.020Z,65.90
2022-10-25T10:21:53.862Z,66.10
2022-10-25T10:24:05.547Z,66.50
2022-10-25T10:26:17.895Z,66.60
2022-10-25T10:28:24.593Z,66.70
2022-10-25T10:30:33.626Z,67.00
2022-10-25T10:32:42.287Z,67.30
2022-10-25T10:34:55.477Z,67.50
2022-10-25T10:37:15.859Z,67.80
2022-10-25T10:39:27.490Z,68.00
2022-10-25T10:41:34.213Z,68.40
2022-10-25T10:43:40.652Z,68.40
2022-10-25T10:45:53.280Z,68.40
2022-10-25T10:48:00.768Z,68.60
2022-10-25T10:50:15.831Z,68.80
2022-10-25T10:52:33.332Z,69.10
2022-10-25T10:54:51.611Z,69.30
2022-10-25T10:57:00.063Z,69.90
2022-10-25T10:59:07.654Z,69.80
2022-10-25T11:01:15.914Z,69.90
2022-10-25T11:03:59.190Z,70.20
2022-10-25T11:06:14.264Z,70.40
2022-10-25T11:08:23.058Z,70.50
2022-10-25T11:10:33.388Z,70.60
2022-10-25T11:12:41.251Z,70.80
2022-10-25T11:14:47.900Z,71.00
2022-10-25T11:17:01.724Z,71.20
2022-10-25T11:19:28.574Z,71.40
2022-10-25T11:21:55.385Z,71.40
2022-10-25T11:24:11.118Z,71.80
2022-10-25T11:26:27.269Z,71.80
2022-10-25T11:28:49.325Z,71.50
2022-10-25T11:31:04.632Z,71.50
2022-10-25T11:33:37.776Z,71.40
2022-10-25T11:35:55.550Z,71.60
2022-10-25T11:38:08.667Z,71.40
2022-10-25T11:40:19.438Z,71.20
2022-10-25T11:42:52.995Z,71.30
2022-10-25T11:45:29.332Z,71.30
2022-10-25T11:47:46.745Z,71.30
2022-10-25T11:50:02.019Z,71.60
2022-10-25T11:52:23.284Z,71.40
2022-10-25T11:54:39.087Z,71.40
2022-10-25T11:56:55.428Z,71.40
2022-10-25T11:59:13.561Z,71.40
2022-10-25T12:01:36.914Z,71.40
2022-10-25T12:04:03.023Z,71.60
2022-10-25T12:06:18.957Z,71.70
2022-10-25T12:08:37.413Z,71.70
2022-10-25T12:12:59.925Z,71.90
2022-10-25T12:15:08.647Z,72.10
2022-10-25T12:17:22.685Z,72.50
2022-10-25T12:19:31.946Z,72.50
2022-10-25T12:21:45.355Z,72.60
2022-10-25T12:23:53.767Z,72.60
2022-10-25T12:26:04.964Z,72.60
2022-10-25T12:28:24.537Z,72.60
2022-10-25T12:30:34.344Z,72.80
2022-10-25T12:32:45.956Z,73.20
2022-10-25T12:34:53.730Z,73.30
2022-10-25T12:37:06.230Z,73.70
2022-10-25T12:39:18.677Z,73.60
2022-10-25T12:41:28.895Z,73.80
2022-10-25T12:43:40.543Z,74.10
2022-10-25T12:46:10.748Z,74.60
2022-10-25T12:48:36.664Z,74.90
2022-10-25T12:51:12.989Z,75.60
2022-10-25T12:53:51.155Z,75.60
2022-10-25T12:56:05.050Z,75.70
2022-10-25T12:58:33.014Z,75.80
2022-10-25T13:00:45.436Z,76.10
2022-10-25T13:03:27.330Z,76.60
2022-10-25T13:06:12.417Z,77.50
2022-10-25T13:08:22.353Z,77.90
2022-10-25T13:10:29.559Z,77.70
2022-10-25T13:12:36.098Z,78.30
2022-10-25T13:14:48.344Z,78.50
2022-10-25T13:16:55.101Z,79.10
2022-10-25T13:19:53.964Z,79.90
2022-10-25T13:22:39.479Z,82.00
2022-10-25T13:24:46.796Z,82.80
2022-10-25T13:27:21.691Z,82.10
2022-10-25T13:29:51.221Z,82.20
2022-10-25T13:32:11.647Z,81.80
2022-10-25T13:34:33.488Z,81.40
2022-10-25T13:36:53.650Z,81.80
2022-10-25T13:39:09.922Z,82.20
2022-10-25T13:41:18.191Z,81.40
2022-10-25T13:43:25.658Z,81.00
2022-10-25T13:45:43.708Z,80.70
2022-10-25T13:47:52.102Z,80.70
2022-10-25T13:49:59.042Z,80.40
2022-10-25T13:52:08.171Z,80.20
2022-10-25T13:54:16.625Z,79.90
2022-10-25T13:56:39.809Z,79.70
2022-10-25T13:58:53.860Z,79.60
2022-10-25T14:01:01.200Z,79.40
2022-10-25T14:03:30.827Z,79.20
2022-10-25T14:06:25.125Z,78.80
2022-10-25T14:08:34.296Z,79.20
2022-10-25T14:10:43.706Z,79.20
2022-10-25T14:12:54.510Z,79.50
2022-10-25T14:15:06.421Z,79.70
2022-10-25T14:17:21.482Z,79.80
2022-10-25T14:19:37.636Z,79.90
2022-10-25T14:21:49.499Z,80.30
2022-10-25T14:23:57.217Z,80.30
2022-10-25T14:26:07.152Z,80.10
2022-10-25T14:28:18.041Z,80.10
2022-10-25T14:30:28.152Z,80.00
2022-10-25T14:32:34.691Z,79.90
2022-10-25T14:34:41.230Z,79.90
2022-10-25T14:36:52.109Z,79.10
2022-10-25T14:39:00.247Z,78.90
2022-10-25T14:41:15.248Z,78.20
2022-10-25T14:43:32.325Z,78.60
2022-10-25T14:45:38.792Z,78.70
2022-10-25T14:47:45.546Z,78.50
2022-10-25T14:49:52.286Z,78.60
2022-10-25T14:52:02.601Z,78.60
2022-10-25T14:54:20.998Z,78.70
2022-10-25T14:56:32.968Z,79.00
2022-10-25T14:58:45.568Z,78.80
2022-10-25T15:01:04.888Z,78.90
2022-10-25T15:03:14.975Z,79.30
2022-10-25T15:05:24.129Z,79.20
2022-10-25T15:07:34.497Z,79.10
2022-10-25T15:09:52.080Z,79.10
2022-10-25T15:12:21.936Z,78.90
2022-10-25T15:14:32.756Z,78.90
2022-10-25T15:16:43.404Z,78.70
2022-10-25T15:19:07.539Z,78.70
2022-10-25T15:21:16.310Z,78.70
2022-10-25T15:23:24.650Z,78.80
2022-10-25T15:25:34.440Z,78.70
2022-10-25T15:27:46.959Z,78.40
2022-10-25T15:29:53.424Z,78.80
2022-10-25T15:32:00.473Z,78.80
2022-10-25T15:34:08.714Z,78.90
2022-10-25T15:36:25.483Z,79.10
2022-10-25T15:38:48.189Z,79.50
2022-10-25T15:40:59.917Z,79.30
2022-10-25T15:43:08.059Z,79.40
2022-10-25T15:45:15.946Z,79.60
2022-10-25T15:47:32.623Z,79.70
2022-10-25T15:49:39.172Z,79.80
2022-10-25T15:51:47.378Z,79.80
2022-10-25T15:53:53.826Z,79.70
2022-10-25T15:56:00.446Z,80.00
2022-10-25T15:58:10.657Z,79.60
2022-10-25T16:00:18.557Z,79.90
2022-10-25T16:02:29.313Z,80.00
2022-10-25T16:04:35.730Z,80.40
2022-10-25T16:06:42.375Z,80.10
2022-10-25T16:08:48.821Z,80.10
2022-10-25T16:10:56.148Z,80.10
2022-10-25T16:13:05.400Z,80.30
2022-10-25T16:15:18.209Z,80.30
2022-10-25T16:17:24.657Z,80.40
2022-10-25T16:19:32.418Z,80.30
2022-10-25T16:21:38.878Z,80.40
2022-10-25T16:23:45.571Z,80.00
2022-10-25T16:25:52.211Z,79.70
2022-10-25T16:27:58.981Z,79.50
2022-10-25T16:30:05.423Z,79.00
2022-10-25T16:32:13.562Z,78.80
2022-10-25T16:34:20.472Z,78.60
2022-10-25T16:36:26.978Z,78.40
2022-10-25T16:38:33.424Z,78.60
2022-10-25T16:40:40.251Z,78.80
2022-10-25T16:42:47.090Z,78.80
2022-10-25T16:44:54.042Z,79.30
2022-10-25T16:47:00.878Z,79.70
2022-10-25T16:49:10.291Z,79.60
2022-10-25T16:51:17.922Z,79.70
2022-10-25T16:53:24.401Z,79.90
2022-10-25T16:55:31.978Z,79.90
2022-10-25T16:57:38.830Z,80.10
2022-10-25T16:59:45.458Z,80.20
2022-10-25T17:01:57.895Z,80.20
2022-10-25T17:04:05.239Z,80.00
2022-10-25T17:06:28.715Z,80.10
2022-10-25T17:08:40.190Z,80.70
2022-10-25T17:10:46.627Z,81.10
2022-10-25T17:12:56.628Z,81.40
2022-10-25T17:15:03.039Z,81.40
2022-10-25T17:17:09.856Z,81.60
2022-10-25T17:19:16.534Z,81.60
2022-10-25T17:21:25.010Z,81.90
2022-10-25T17:23:31.466Z,81.90
2022-10-25T17:25:38.288Z,81.90
2022-10-25T17:27:48.675Z,81.60
2022-10-25T17:29:55.297Z,81.50
2022-10-25T17:32:01.870Z,81.70
2022-10-25T17:34:08.459Z,81.80
2022-10-25T17:36:16.919Z,81.80
2022-10-25T17:38:25.049Z,82.10
2022-10-25T17:40:31.559Z,82.20
2022-10-25T17:42:37.992Z,82.40
2022-10-25T17:44:45.586Z,82.70
2022-10-25T17:46:53.003Z,82.90
2022-10-25T17:49:04.004Z,83.00
2022-10-25T17:51:12.888Z,83.10
2022-10-25T17:53:19.366Z,83.00
2022-10-25T17:55:33.167Z,83.20
2022-10-25T17:57:40.217Z,83.30
2022-10-25T17:59:47.070Z,83.50
2022-10-25T18:01:53.677Z,84.00
2022-10-25T18:04:00.654Z,84.00
2022-10-25T18:06:09.241Z,83.90
2022-10-25T18:08:15.903Z,84.20
2022-10-25T18:10:22.422Z,85.40
2022-10-25T18:12:31.319Z,86.10
2022-10-25T18:14:37.749Z,86.70
2022-10-25T18:16:44.698Z,87.00
2022-10-25T18:18:51.184Z,87.10
2022-10-25T18:20:57.845Z,87.10
2022-10-25T18:23:04.274Z,87.40
2022-10-25T18:25:11.749Z,87.10
2022-10-25T18:27:18.232Z,87.20
2022-10-25T18:29:26.547Z,87.20
2022-10-25T18:31:32.997Z,87.50
2022-10-25T18:33:41.752Z,87.70
2022-10-25T18:35:48.514Z,87.90
2022-10-25T18:37:55.131Z,88.30
2022-10-25T18:40:01.627Z,88.70
2022-10-25T18:42:08.321Z,88.80
2022-10-25T18:44:15.374Z,88.70
2022-10-25T18:46:24.366Z,88.80
2022-10-25T18:48:31.092Z,88.90
2022-10-25T18:50:41.780Z,89.00
2022-10-25T18:52:49.182Z,89.20
2022-10-25T18:54:56.184Z,89.30
2022-10-25T18:57:02.659Z,89.60
2022-10-25T18:59:09.983Z,89.90
2022-10-25T19:01:17.798Z,90.40
2022-10-25T19:03:26.004Z,90.90
2022-10-25T19:05:33.194Z,91.20
2022-10-25T19:07:39.824Z,91.00
2022-10-25T19:09:46.247Z,91.00
2022-10-25T19:11:52.709Z,90.90
2022-10-25T19:13:59.971Z,91.00
2022-10-25T19:16:07.293Z,91.20
2022-10-25T19:18:14.894Z,91.40
2022-10-25T19:20:23.080Z,92.10
2022-10-25T19:22:30.562Z,92.30
2022-10-25T19:24:38.690Z,92.50
2022-10-25T19:26:45.732Z,92.60
2022-10-25T19:28:59.213Z,92.70
2022-10-25T19:31:08.962Z,92.60
2022-10-25T19:33:15.461Z,92.40
2022-10-25T19:35:24.244Z,92.20
2022-10-25T19:37:30.722Z,92.00
2022-10-25T19:39:38.762Z,91.90
2022-10-25T19:41:45.190Z,91.80
2022-10-25T19:43:51.953Z,91.70
2022-10-25T19:46:00.387Z,91.80
2022-10-25T19:48:07.442Z,91.90
2022-10-25T19:50:14.167Z,91.60
2022-10-25T19:52:22.628Z,91.60
2022-10-25T19:54:29.071Z,91.50
2022-10-25T19:56:38.089Z,91.80
2022-10-25T19:58:44.542Z,92.30
2022-10-25T20:00:51.053Z,92.60
2022-10-25T20:02:57.500Z,92.90
2022-10-25T20:05:04.538Z,93.00
2022-10-25T20:07:11.057Z,93.20
2022-10-25T20:09:19.398Z,93.20
2022-10-25T20:11:27.234Z,93.20
2022-10-25T20:13:34.081Z,93.50
2022-10-25T20:15:40.530Z,93.70
2022-10-25T20:17:47.249Z,93.40
2022-10-25T20:19:53.842Z,92.60
2022-10-25T20:22:00.514Z,92.00
2022-10-25T20:24:08.893Z,91.60
2022-10-25T20:26:19.753Z,91.40
2022-10-25T20:28:26.245Z,91.30
2022-10-25T20:30:35.673Z,91.10
2022-10-25T20:32:42.121Z,91.10
2022-10-25T20:34:48.837Z,91.60
2022-10-25T20:36:55.298Z,92.00
2022-10-25T20:39:02.013Z,92.30
2022-10-25T20:41:09.651Z,92.40
2022-10-25T20:43:18.445Z,92.50
2022-10-25T20:45:25.325Z,92.70
2022-10-25T20:47:31.729Z,92.70
2022-10-25T20:49:38.425Z,92.50
2022-10-25T20:51:44.867Z,92.10
2022-10-25T20:53:51.980Z,91.80
2022-10-25T20:55:58.568Z,91.50
2022-10-25T20:58:05.230Z,91.40
2022-10-25T21:00:18.286Z,91.20
2022-10-25T21:02:27.309Z,91.00
2022-10-25T21:04:42.775Z,90.30
2022-10-25T21:06:59.697Z,89.90
2022-10-25T21:09:06.591Z,89.70
2022-10-25T21:11:15.617Z,89.40
2022-10-25T21:13:22.060Z,89.20
2022-10-25T21:15:30.190Z,89.10
2022-10-25T21:17:37.041Z,89.10
2022-10-25T21:19:43.754Z,89.10
2022-10-25T21:21:50.201Z,89.10
2022-10-25T21:24:00.354Z,88.80
2022-10-25T21:26:08.864Z,88.90
2022-10-25T21:28:15.579Z,88.90
2022-10-25T21:30:22.101Z,88.90
2022-10-25T21:32:30.655Z,88.70
2022-10-25T21:34:37.211Z,89.40
2022-10-25T21:36:43.941Z,89.80
2022-10-25T21:38:50.408Z,89.60
2022-10-25T21:40:57.418Z,89.20
2022-10-25T21:43:03.876Z,89.30
2022-10-25T21:45:11.519Z,89.30
2022-10-25T21:47:18.110Z,89.20
2022-10-25T21:49:26.711Z,89.20
2022-10-25T21:51:33.180Z,89.20
2022-10-25T21:53:39.682Z,89.20
2022-10-25T21:55:46.138Z,89.70
2022-10-25T21:57:54.501Z,89.60
2022-10-25T22:00:01.450Z,89.50
2022-10-25T22:02:18.969Z,89.70
2022-10-25T22:04:28.745Z,89.80
2022-10-25T22:06:35.495Z,89.90
2022-10-25T22:08:42.309Z,90.00
2022-10-25T22:13:09.795Z,90.40
2022-10-25T22:15:16.499Z,90.80
2022-10-25T22:17:24.097Z,91.00
2022-10-25T22:19:32.240Z,91.00
2022-10-25T22:21:40.982Z,91.10
2022-10-25T22:23:47.455Z,91.20
2022-10-25T22:25:53.956Z,91.50
2022-10-25T22:28:00.632Z,91.80
2022-10-25T22:30:07.535Z,91.80
2022-10-25T22:32:14.009Z,91.90
2022-10-25T22:34:20.483Z,92.10
2022-10-25T22:36:30.242Z,92.50
2022-10-25T22:38:36.994Z,92.80
2022-10-25T22:40:43.445Z,92.90
2022-10-25T22:42:50.164Z,93.00
2022-10-25T22:44:56.625Z,93.20
2022-10-25T22:47:03.058Z,92.90
2022-10-25T22:49:11.640Z,92.90
2022-10-25T22:51:18.613Z,92.70
2022-10-25T22:53:26.743Z,92.80
2022-10-25T22:55:33.256Z,92.70
2022-10-25T22:57:39.728Z,92.80
2022-10-25T22:59:46.499Z,92.90
2022-10-25T23:01:52.912Z,92.90
2022-10-25T23:04:01.338Z,93.10
2022-10-25T23:06:08.697Z,93.20
2022-10-25T23:08:15.336Z,93.30
2022-10-25T23:10:23.449Z,93.60
2022-10-25T23:12:29.895Z,93.90
2022-10-25T23:14:36.738Z,94.00
2022-10-25T23:16:43.161Z,94.10
2022-10-25T23:18:50.100Z,94.20
2022-10-25T23:20:58.381Z,94.20
2022-10-25T23:23:05.371Z,94.20
2022-10-25T23:25:12.433Z,94.30
2022-10-25T23:27:20.776Z,94.20
2022-10-25T23:29:27.232Z,94.00
2022-10-25T23:31:34.575Z,94.10
2022-10-25T23:33:41.399Z,94.30
2022-10-25T23:35:48.120Z,94.10
2022-10-25T23:37:54.552Z,94.30
2022-10-25T23:40:01.459Z,94.40
2022-10-25T23:42:07.982Z,94.20
2022-10-25T23:44:16.531Z,94.30
2022-10-25T23:46:23.052Z,94.00
2022-10-25T23:48:30.065Z,94.20
2022-10-25T23:50:36.495Z,94.60
2022-10-25T23:52:43.344Z,94.40
2022-10-25T23:54:49.787Z,94.40
2022-10-25T23:56:56.254Z,94.80
2022-10-25T23:59:03.034Z,94.50
